Time;durP1;ratioP1;P1;durP2;ratioP2;P2;SDS_P1;SDS_P2;PMS_P1;PMS_P2;Temp;Humidity;BMP_temperature;BMP_pressure;BME280_temperature;BME280_humidity;BME280_pressure;Samples;Min_cycle;Max_cycle;Signal;HPM_P1;HPM_P2
2022/08/14 00:01:05;;;;;;;14.00;13.17;;;18.90;99.90;;;;;;4916979;29;20462;-72
2022/08/14 00:03:32;;;;;;;13.67;12.97;;;18.90;99.90;;;;;;4916745;29;20458;-71
2022/08/14 00:06:01;;;;;;;14.23;13.53;;;18.90;99.90;;;;;;4916570;29;20506;-71
2022/08/14 00:08:29;;;;;;;13.67;12.97;;;18.90;99.90;;;;;;4916661;29;20459;-71
2022/08/14 00:10:56;;;;;;;13.30;12.70;;;18.80;99.90;;;;;;4916566;29;20459;-71
2022/08/14 00:13:27;;;;;;;12.60;11.90;;;18.70;99.90;;;;;;4915920;29;20839;-71
2022/08/14 00:15:56;;;;;;;13.50;12.80;;;18.70;99.90;;;;;;4916588;29;20636;-71
2022/08/14 00:18:26;;;;;;;14.00;13.30;;;18.60;99.90;;;;;;4916508;29;20458;-71
2022/08/14 00:20:54;;;;;;;14.70;13.67;;;18.60;99.90;;;;;;4916493;29;20466;-72
2022/08/14 00:23:21;;;;;;;14.60;13.90;;;18.60;99.90;;;;;;4916618;29;20458;-71
2022/08/14 00:25:50;;;;;;;13.93;13.13;;;18.60;99.90;;;;;;4916411;29;20454;-71
2022/08/14 00:28:18;;;;;;;13.93;13.33;;;18.60;99.90;;;;;;4916502;29;20450;-71
2022/08/14 00:30:45;;;;;;;12.80;12.20;;;18.50;99.90;;;;;;4916361;29;20481;-71
2022/08/14 00:33:12;;;;;;;14.67;13.67;;;18.50;99.90;;;;;;4916168;29;20490;-72
2022/08/14 04:58:41;;;;;;;16.07;15.33;;;16.30;99.90;;;;;;5945344;23;20419;31
2022/08/14 05:01:11;;;;;;;16.87;16.00;;;16.40;99.90;;;;;;4891390;29;20457;-73
2022/08/14 05:03:38;;;;;;;16.03;15.07;;;16.50;99.90;;;;;;4896094;29;20458;-73
2022/08/14 05:06:08;;;;;;;14.83;14.10;;;16.70;99.90;;;;;;4895815;29;20551;-73
2022/08/14 05:08:35;;;;;;;14.10;13.40;;;17.00;99.90;;;;;;4895954;29;21195;-72
2022/08/14 05:11:05;;;;;;;15.07;14.17;;;17.30;99.90;;;;;;4895808;29;20878;-73
2022/08/14 05:13:33;;;;;;;14.97;14.27;;;17.60;99.90;;;;;;4895753;29;20498;-72
2022/08/14 05:16:01;;;;;;;14.17;13.47;;;17.90;99.90;;;;;;4895925;29;20515;-71
2022/08/14 05:18:31;;;;;;;14.60;13.70;;;18.00;99.90;;;;;;4895994;29;20518;-73
2022/08/14 05:21:00;;;;;;;14.80;13.90;;;18.20;99.90;;;;;;4895940;29;20879;-73
2022/08/14 05:23:31;;;;;;;15.10;14.30;;;18.50;99.90;;;;;;4895649;29;20455;-73
2022/08/14 05:26:00;;;;;;;14.00;13.30;;;18.70;99.90;;;;;;4905658;29;20450;-72
2022/08/14 05:28:29;;;;;;;14.27;13.47;;;18.90;99.90;;;;;;4906036;29;20850;-73
2022/08/14 05:30:57;;;;;;;15.23;14.07;;;19.10;99.90;;;;;;4895981;29;20459;-73
2022/08/14 05:33:27;;;;;;;15.33;14.60;;;19.30;99.90;;;;;;4909347;29;20457;-73
2022/08/14 05:36:00;;;;;;;15.63;14.83;;;19.50;99.90;;;;;;4914659;29;20560;-73
2022/08/14 05:38:32;;;;;;;15.07;14.37;;;19.70;99.90;;;;;;4914644;29;20473;-73
2022/08/14 05:40:59;;;;;;;14.70;14.00;;;19.70;99.90;;;;;;4908117;29;20458;-73
2022/08/14 05:43:26;;;;;;;15.23;14.43;;;19.70;99.90;;;;;;4895587;29;20487;-73
2022/08/14 05:45:52;;;;;;;14.93;14.00;;;19.70;99.90;;;;;;4895570;29;20459;-73
2022/08/14 05:48:19;;;;;;;15.47;14.47;;;19.70;99.90;;;;;;4895287;29;20522;-73
2022/08/14 05:50:46;;;;;;;16.70;15.53;;;19.70;99.90;;;;;;4895422;29;20463;-73
2022/08/14 05:53:14;;;;;;;15.73;14.83;;;19.80;99.90;;;;;;4895498;29;20945;-73
2022/08/14 05:55:40;;;;;;;14.73;14.03;;;19.80;99.90;;;;;;4895511;29;20451;-72
2022/08/14 05:58:08;;;;;;;15.03;14.33;;;20.00;99.90;;;;;;4902123;29;20481;-72
2022/08/14 06:00:36;;;;;;;14.63;13.83;;;20.20;99.90;;;;;;4913926;29;20486;-73
2022/08/14 06:03:05;;;;;;;14.47;13.77;;;20.40;99.90;;;;;;4914046;29;20458;-73
2022/08/14 06:05:32;;;;;;;14.13;13.40;;;20.80;99.90;;;;;;4914051;29;20451;-72
2022/08/14 06:07:59;;;;;;;13.80;13.20;;;21.20;99.00;;;;;;4914195;29;20933;-73
2022/08/14 06:10:28;;;;;;;15.97;15.17;;;21.40;98.60;;;;;;4913912;29;20517;-73
2022/08/14 06:12:56;;;;;;;15.53;14.83;;;21.40;98.20;;;;;;4914267;29;20967;-72
2022/08/14 06:15:24;;;;;;;14.70;13.90;;;21.20;97.90;;;;;;4913912;29;20498;-73
2022/08/14 06:17:53;;;;;;;14.43;13.73;;;21.20;98.20;;;;;;4913959;29;20458;-73
2022/08/14 06:20:20;;;;;;;14.60;13.87;;;21.20;98.20;;;;;;4913860;29;20598;-74
2022/08/14 06:22:47;;;;;;;14.07;13.37;;;21.30;97.80;;;;;;4913774;29;20564;-74
2022/08/14 06:25:15;;;;;;;14.80;13.90;;;21.40;96.60;;;;;;4913768;29;20462;-73
2022/08/14 06:27:44;;;;;;;14.20;13.60;;;21.20;97.40;;;;;;4914018;29;20454;-74
2022/08/14 06:30:13;;;;;;;14.50;13.80;;;20.90;98.30;;;;;;4913932;29;20458;-73
2022/08/14 06:32:40;;;;;;;13.93;13.10;;;20.90;97.80;;;;;;4913888;29;20510;-73
2022/08/14 06:35:08;;;;;;;14.30;13.60;;;21.20;97.40;;;;;;4913678;29;20904;-73
2022/08/14 06:37:43;;;;;;;14.77;14.13;;;21.60;96.30;;;;;;4913674;29;20496;-73
2022/08/14 06:40:12;;;;;;;14.87;14.17;;;22.00;95.70;;;;;;4913974;29;20469;-73
2022/08/14 06:42:38;;;;;;;15.10;14.30;;;22.40;94.60;;;;;;4913660;29;21005;-74
2022/08/14 06:45:08;;;;;;;14.77;14.07;;;22.40;94.30;;;;;;4913533;29;20865;-73
2022/08/14 06:47:35;;;;;;;14.27;13.57;;;22.50;94.00;;;;;;4913548;29;20488;-73
2022/08/14 06:50:02;;;;;;;14.67;13.70;;;22.50;93.70;;;;;;4913453;29;20548;-74
2022/08/14 06:52:29;;;;;;;14.37;13.77;;;22.80;93.30;;;;;;4913633;29;20878;-74
2022/08/14 06:54:56;;;;;;;15.20;14.50;;;23.10;92.40;;;;;;4913739;29;20490;-74
2022/08/14 06:57:23;;;;;;;14.90;14.10;;;23.50;91.60;;;;;;4913643;29;20478;-74
2022/08/14 06:59:50;;;;;;;15.00;14.40;;;24.00;91.00;;;;;;4913314;29;20731;-74
2022/08/14 07:07:47;;;;;;;15.00;14.10;;;25.10;85.60;;;;;;4913338;29;20493;-73
2022/08/14 07:10:13;;;;;;;15.03;14.23;;;25.20;84.10;;;;;;4913443;29;20455;-73
2022/08/14 07:12:40;;;;;;;14.40;13.70;;;25.00;84.70;;;;;;4913674;29;20462;-73
2022/08/14 07:15:08;;;;;;;14.40;13.70;;;25.00;85.30;;;;;;4913086;29;20553;-73
2022/08/14 07:17:44;;;;;;;14.57;13.87;;;25.30;84.10;;;;;;4913170;29;20451;-73
2022/08/14 07:20:11;;;;;;;13.00;12.40;;;25.60;82.80;;;;;;4913518;29;20996;-75
2022/08/14 07:22:38;;;;;;;14.27;13.67;;;26.40;80.10;;;;;;4913489;29;20454;-73
2022/08/14 07:25:05;;;;;;;14.90;14.30;;;27.10;76.40;;;;;;4916647;29;20450;-73
2022/08/14 07:27:32;;;;;;;14.70;14.07;;;26.90;74.30;;;;;;4916453;29;20830;-73
2022/08/14 07:29:59;;;;;;;13.50;13.00;;;26.60;74.60;;;;;;4916560;29;20459;-73
2022/08/14 07:32:25;;;;;;;14.20;13.60;;;26.90;74.10;;;;;;4916692;29;20851;-75
2022/08/14 07:34:53;;;;;;;14.80;14.10;;;27.00;72.60;;;;;;4916426;29;20494;-74
2022/08/14 07:37:20;;;;;;;14.57;13.80;;;27.00;72.80;;;;;;4916364;29;20838;-74
2022/08/14 07:39:47;;;;;;;14.57;13.87;;;26.90;73.10;;;;;;4916156;29;20459;-75
2022/08/14 07:42:14;;;;;;;14.47;13.67;;;27.10;72.80;;;;;;4916511;29;20884;-74
2022/08/14 07:44:40;;;;;;;14.57;13.83;;;26.90;73.50;;;;;;4916525;29;20554;-74
2022/08/14 07:47:07;;;;;;;14.90;14.20;;;27.20;72.70;;;;;;4916185;29;20458;-74
2022/08/14 07:49:34;;;;;;;14.30;13.70;;;27.40;72.70;;;;;;4916154;29;20486;-74
2022/08/14 07:52:03;;;;;;;14.10;13.60;;;27.80;71.00;;;;;;4916090;29;20459;-74
2022/08/14 07:54:30;;;;;;;14.53;13.93;;;28.50;68.90;;;;;;4916113;29;20584;-75
2022/08/14 07:56:58;;;;;;;13.90;13.03;;;28.80;66.70;;;;;;4916449;29;20549;-75
2022/08/14 07:59:25;;;;;;;14.10;13.60;;;29.20;64.80;;;;;;4916161;29;20482;-75
2022/08/14 08:01:52;;;;;;;15.00;14.23;;;29.60;64.00;;;;;;4916130;29;20455;-75
2022/08/14 08:04:24;;;;;;;14.17;13.57;;;29.90;61.40;;;;;;4915941;29;21009;-75
2022/08/14 08:06:51;;;;;;;15.50;14.83;;;30.10;60.70;;;;;;4916018;29;20502;-75
2022/08/14 08:09:24;;;;;;;14.87;14.07;;;30.80;59.00;;;;;;4916099;29;20721;-75
2022/08/14 08:11:52;;;;;;;15.73;15.13;;;31.10;58.00;;;;;;4915974;29;20466;-75
2022/08/14 08:14:19;;;;;;;15.03;14.33;;;31.90;55.80;;;;;;4915732;29;20585;-75
2022/08/14 08:16:47;;;;;;;14.90;14.30;;;32.00;55.50;;;;;;4915938;29;20466;-75
2022/08/14 08:19:17;;;;;;;15.17;14.57;;;32.50;54.50;;;;;;4915895;29;20522;-75
2022/08/14 08:21:45;;;;;;;15.17;14.57;;;33.00;53.10;;;;;;4915858;29;20889;-75
2022/08/14 08:24:12;;;;;;;15.50;14.87;;;33.70;51.40;;;;;;4915760;29;20462;-74
2022/08/14 08:26:40;;;;;;;15.17;14.50;;;34.00;50.80;;;;;;4915785;29;20461;-76
2022/08/14 08:29:08;;;;;;;15.53;14.80;;;34.30;49.60;;;;;;4915511;29;20829;-75
2022/08/14 08:31:46;;;;;;;16.13;15.43;;;34.70;49.10;;;;;;4915474;29;20451;-75
2022/08/14 08:34:14;;;;;;;14.50;14.00;;;35.10;47.80;;;;;;4915358;29;20454;-76
2022/08/14 08:36:41;;;;;;;15.07;14.30;;;35.60;46.60;;;;;;4915614;29;20462;-77
2022/08/14 08:39:08;;;;;;;16.23;15.63;;;35.80;45.40;;;;;;4915546;29;20792;-74
2022/08/14 08:41:44;;;;;;;15.00;14.50;;;36.40;44.70;;;;;;4915303;29;20897;-75
2022/08/14 08:44:11;;;;;;;15.00;14.50;;;36.80;43.40;;;;;;4915432;29;20460;-75
2022/08/14 08:46:38;;;;;;;14.90;14.40;;;37.00;41.90;;;;;;4915294;29;20466;-74
2022/08/14 08:49:05;;;;;;;15.60;14.90;;;37.50;40.60;;;;;;4915031;29;20922;-75
2022/08/14 08:51:34;;;;;;;14.30;13.80;;;37.50;40.40;;;;;;4915195;29;20454;-75
2022/08/14 08:54:03;;;;;;;14.40;13.80;;;37.60;39.60;;;;;;4915040;29;20913;-75
2022/08/14 08:56:40;;;;;;;14.83;14.33;;;37.10;40.00;;;;;;4914972;29;20502;-74
2022/08/14 08:59:20;;;;;;;15.77;15.17;;;36.50;39.80;;;;;;4914672;29;20500;-75
2022/08/14 09:01:51;;;;;;;13.90;13.47;;;35.40;41.00;;;;;;4914981;29;20477;-74
2022/08/14 09:04:19;;;;;;;14.90;14.20;;;34.50;41.80;;;;;;4914844;29;20485;-74
2022/08/14 09:06:49;;;;;;;15.10;14.50;;;33.40;42.60;;;;;;4914836;29;20458;-75
2022/08/14 09:09:20;;;;;;;14.83;14.33;;;33.20;42.90;;;;;;4914726;29;20450;-75
2022/08/14 09:11:47;;;;;;;14.30;13.80;;;32.50;43.30;;;;;;4914860;29;20787;-75
2022/08/14 09:14:13;;;;;;;13.80;13.30;;;32.40;43.70;;;;;;4914603;29;20458;-74
2022/08/14 09:16:42;;;;;;;13.97;13.37;;;32.10;43.60;;;;;;4914768;29;21016;-74
2022/08/14 09:19:09;;;;;;;13.90;13.13;;;31.80;43.80;;;;;;4914712;29;20458;-75
2022/08/14 09:21:38;;;;;;;14.60;14.00;;;31.50;44.70;;;;;;4914512;29;20458;-75
2022/08/14 09:24:06;;;;;;;13.70;13.20;;;31.20;44.90;;;;;;4914515;29;20987;-75
2022/08/14 09:26:33;;;;;;;13.70;13.20;;;31.00;45.60;;;;;;4914440;29;20502;-75
2022/08/14 09:28:59;;;;;;;15.07;14.47;;;30.80;45.90;;;;;;4914588;29;20458;-75
2022/08/14 09:31:28;;;;;;;13.73;13.23;;;31.30;45.60;;;;;;4914686;29;20462;-76
2022/08/14 09:34:07;;;;;;;15.37;14.67;;;31.60;44.60;;;;;;4914604;29;20458;-75
2022/08/14 09:36:43;;;;;;;15.63;14.93;;;31.80;44.70;;;;;;4914191;29;21030;-75
2022/08/14 09:39:20;;;;;;;14.53;14.00;;;32.00;44.40;;;;;;4914514;29;20953;-75
2022/08/14 09:42:03;;;;;;;15.03;14.33;;;32.10;44.20;;;;;;4914122;29;20454;-75
2022/08/14 09:44:41;;;;;;;15.10;14.50;;;32.30;44.00;;;;;;4914153;29;20461;-75
2022/08/14 09:47:09;;;;;;;15.00;14.33;;;33.20;43.10;;;;;;4913747;29;20525;-76
2022/08/14 09:49:39;;;;;;;15.07;14.37;;;33.50;42.10;;;;;;4914120;29;20497;-77
2022/08/14 09:52:09;;;;;;;14.60;13.90;;;33.00;42.00;;;;;;4913893;29;21019;-73
2022/08/14 09:54:40;;;;;;;14.70;14.10;;;32.90;42.10;;;;;;4884918;29;20833;-73
2022/08/14 09:57:09;;;;;;;14.70;14.10;;;32.80;42.40;;;;;;4885061;29;20440;-74
2022/08/14 09:59:44;;;;;;;14.93;14.27;;;32.70;42.30;;;;;;4884282;29;21004;-73
2022/08/14 10:02:22;;;;;;;14.13;13.63;;;32.40;42.70;;;;;;4885810;29;20456;-74
2022/08/14 10:05:01;;;;;;;14.87;14.27;;;32.50;42.70;;;;;;4885047;29;20653;-74
2022/08/14 10:07:33;;;;;;;14.20;13.60;;;32.60;42.70;;;;;;4885191;29;20811;-74
2022/08/14 10:10:00;;;;;;;14.13;13.63;;;32.70;42.40;;;;;;4884351;29;20445;-75
2022/08/14 10:12:41;;;;;;;13.93;13.23;;;32.70;42.30;;;;;;4885817;29;20482;-75
2022/08/14 10:15:19;;;;;;;14.47;13.70;;;32.80;42.40;;;;;;4884812;29;20578;-75
2022/08/14 10:17:47;;;;;;;15.13;14.33;;;33.40;41.40;;;;;;4884412;29;20890;-75
2022/08/14 10:20:20;;;;;;;14.83;14.33;;;34.40;40.50;;;;;;4884383;29;20451;-75
2022/08/14 10:22:48;;;;;;;15.10;14.40;;;35.10;39.20;;;;;;4883427;29;20797;-75
2022/08/14 10:25:16;;;;;;;14.90;14.20;;;35.30;38.60;;;;;;4885486;29;20448;-75
2022/08/14 10:27:45;;;;;;;14.57;13.73;;;34.60;38.80;;;;;;4888847;29;20530;-76
2022/08/14 10:30:16;;;;;;;14.30;13.80;;;34.30;39.70;;;;;;4889425;29;20443;-75
2022/08/14 10:32:44;;;;;;;15.20;14.60;;;33.80;39.60;;;;;;4888464;29;20786;-75
2022/08/14 10:35:12;;;;;;;15.20;14.60;;;33.30;40.10;;;;;;4885811;29;20495;-76
2022/08/14 10:37:43;;;;;;;14.83;14.23;;;33.10;40.70;;;;;;4886977;29;20926;-75
2022/08/14 10:40:10;;;;;;;14.97;14.27;;;33.10;40.70;;;;;;4885109;29;20458;-76
2022/08/14 10:42:38;;;;;;;13.90;13.40;;;33.50;40.60;;;;;;4884120;29;20651;-75
2022/08/14 10:45:19;;;;;;;14.70;14.20;;;33.50;40.20;;;;;;4886670;29;20459;-76
2022/08/14 10:47:46;;;;;;;14.57;14.07;;;33.70;39.80;;;;;;4884159;29;20462;-75
2022/08/14 10:50:15;;;;;;;14.30;13.63;;;33.20;40.30;;;;;;4884601;29;20459;-76
2022/08/14 10:52:45;;;;;;;14.43;13.93;;;33.20;40.40;;;;;;4885935;29;20455;-76
2022/08/14 10:55:14;;;;;;;14.40;13.80;;;33.90;39.80;;;;;;4885052;29;20487;-73
2022/08/14 10:57:49;;;;;;;14.77;14.17;;;34.10;39.10;;;;;;4885813;29;20467;-75
2022/08/14 11:00:19;;;;;;;14.97;14.40;;;33.30;40.60;;;;;;4887561;29;20565;-76
2022/08/14 11:02:57;;;;;;;14.97;14.43;;;33.50;40.20;;;;;;4887815;29;20464;-76
2022/08/14 11:05:26;;;;;;;14.57;13.87;;;33.60;40.20;;;;;;4894927;29;20803;-75
2022/08/14 11:07:59;;;;;;;15.03;14.43;;;33.70;39.30;;;;;;4887424;29;20504;-75
2022/08/14 11:10:39;;;;;;;14.63;14.03;;;33.60;39.70;;;;;;4887577;29;20503;-75
2022/08/14 11:13:07;;;;;;;14.70;14.10;;;33.50;39.60;;;;;;4888964;29;20448;-76
2022/08/14 11:15:34;;;;;;;14.97;14.17;;;33.80;39.30;;;;;;4887317;29;20819;-75
2022/08/14 11:18:01;;;;;;;14.90;14.27;;;34.00;38.80;;;;;;4887807;29;20458;-76
2022/08/14 11:20:30;;;;;;;14.47;13.87;;;33.30;40.20;;;;;;4889125;29;20502;-75
2022/08/14 11:23:00;;;;;;;14.33;13.63;;;33.60;39.70;;;;;;4888091;29;20456;-76
2022/08/14 11:25:30;;;;;;;13.77;13.03;;;34.20;38.70;;;;;;4887244;29;20512;-75
2022/08/14 11:27:59;;;;;;;14.87;14.37;;;33.90;38.10;;;;;;4888372;29;21029;-76
2022/08/14 11:30:27;;;;;;;14.30;13.80;;;33.60;38.40;;;;;;4889060;29;20448;-75
2022/08/14 11:32:54;;;;;;;14.97;14.37;;;33.60;38.70;;;;;;4887499;29;20575;-75
2022/08/14 11:35:22;;;;;;;14.40;13.70;;;33.10;39.00;;;;;;4887707;29;20486;-74
2022/08/14 11:37:51;;;;;;;14.40;13.70;;;33.20;39.20;;;;;;4888720;29;20458;-75
2022/08/14 11:40:20;;;;;;;14.00;13.50;;;33.70;38.50;;;;;;4887668;29;20448;-75
2022/08/14 11:42:48;;;;;;;14.23;13.73;;;33.80;38.20;;;;;;4886843;29;20465;-75
2022/08/14 11:45:16;;;;;;;14.23;13.63;;;34.10;38.10;;;;;;4888473;29;20463;-75
2022/08/14 11:47:43;;;;;;;14.60;14.00;;;34.20;38.20;;;;;;4883814;29;20829;-75
2022/08/14 11:50:16;;;;;;;15.40;14.80;;;34.60;36.90;;;;;;4878768;29;20547;-75
2022/08/14 11:52:44;;;;;;;14.77;14.17;;;35.00;36.50;;;;;;4878636;29;20498;-75
2022/08/14 11:55:12;;;;;;;14.80;14.30;;;35.00;36.10;;;;;;4878624;29;20487;-75
2022/08/14 11:57:42;;;;;;;15.13;14.53;;;34.60;37.40;;;;;;4878362;29;20510;-74
2022/08/14 12:00:11;;;;;;;14.40;13.90;;;34.30;37.10;;;;;;4878239;29;20532;-75
2022/08/14 12:02:50;;;;;;;14.07;13.57;;;34.30;36.90;;;;;;4878336;29;20491;-74
2022/08/14 12:05:17;;;;;;;14.17;13.67;;;34.30;37.20;;;;;;4878269;29;20467;-74
2022/08/14 12:07:48;;;;;;;15.73;15.13;;;34.80;36.20;;;;;;4878390;29;20462;-74
2022/08/14 12:10:18;;;;;;;15.93;15.13;;;35.60;35.20;;;;;;4877664;29;20471;-74
2022/08/14 12:12:48;;;;;;;14.67;14.07;;;36.30;34.10;;;;;;4878235;29;20999;-74
2022/08/14 12:15:15;;;;;;;15.10;14.30;;;35.90;34.50;;;;;;4878215;29;20895;-73
2022/08/14 12:17:48;;;;;;;13.90;13.40;;;34.90;34.60;;;;;;4878409;29;20460;-73
2022/08/14 12:20:15;;;;;;;15.20;14.70;;;34.90;34.60;;;;;;4878216;29;20538;-75
2022/08/14 12:22:44;;;;;;;13.83;13.33;;;35.10;34.70;;;;;;4878380;29;20947;-74
2022/08/14 12:25:13;;;;;;;15.43;14.73;;;34.90;34.60;;;;;;4878339;29;20467;-74
2022/08/14 12:27:42;;;;;;;14.67;14.07;;;34.50;35.20;;;;;;4877855;29;20797;-74
2022/08/14 12:30:13;;;;;;;14.97;14.30;;;34.80;34.90;;;;;;4877940;29;20978;-75
2022/08/14 12:32:43;;;;;;;14.60;14.00;;;35.90;33.60;;;;;;4878310;29;20448;-75
2022/08/14 12:35:10;;;;;;;14.60;14.10;;;36.50;31.10;;;;;;4878097;29;20935;-75
2022/08/14 12:37:37;;;;;;;14.13;13.50;;;36.10;31.40;;;;;;4877803;29;20495;-74
2022/08/14 12:40:12;;;;;;;13.90;13.40;;;35.80;31.30;;;;;;4877815;29;20837;-74
2022/08/14 12:42:39;;;;;;;14.30;13.67;;;36.10;31.60;;;;;;4877730;29;20460;-74
2022/08/14 12:45:09;;;;;;;14.87;14.20;;;36.80;30.60;;;;;;4877653;29;20944;-75
2022/08/14 12:47:38;;;;;;;14.30;13.80;;;36.80;30.70;;;;;;4877661;29;20829;-74
2022/08/14 12:50:05;;;;;;;14.40;13.90;;;35.90;31.40;;;;;;4877528;29;20488;-74
2022/08/14 12:52:34;;;;;;;14.40;13.83;;;35.00;32.70;;;;;;4877524;29;20466;-74
2022/08/14 12:55:03;;;;;;;14.40;13.90;;;35.00;32.90;;;;;;4877458;29;20491;-74
2022/08/14 12:57:36;;;;;;;14.37;13.73;;;35.30;32.20;;;;;;4877342;29;20603;-75
2022/08/14 13:00:11;;;;;;;15.03;14.43;;;35.70;32.00;;;;;;4877261;29;20610;-75
2022/08/14 13:02:40;;;;;;;13.73;13.23;;;36.30;31.80;;;;;;4877461;29;20466;-75
2022/08/14 13:05:09;;;;;;;13.73;13.30;;;35.80;31.30;;;;;;4877416;29;20886;-75
2022/08/14 13:07:39;;;;;;;14.27;13.73;;;36.60;31.00;;;;;;4877280;29;20543;-75
2022/08/14 13:10:07;;;;;;;13.77;13.37;;;36.40;30.60;;;;;;4877145;29;20555;-75
2022/08/14 13:12:37;;;;;;;14.33;13.83;;;36.40;30.70;;;;;;4877086;29;20580;-74
2022/08/14 13:15:06;;;;;;;15.10;14.50;;;35.90;31.10;;;;;;4877092;29;20519;-75
2022/08/14 13:17:41;;;;;;;15.80;15.00;;;35.70;31.80;;;;;;4876977;29;20488;-75
2022/08/14 13:20:10;;;;;;;15.37;14.77;;;36.90;30.90;;;;;;4876538;29;20448;-76
2022/08/14 13:22:38;;;;;;;15.97;15.07;;;37.90;29.90;;;;;;4876743;29;20478;-75
2022/08/14 13:25:06;;;;;;;15.27;14.77;;;38.70;29.70;;;;;;4876926;29;20471;-75
2022/08/14 13:27:35;;;;;;;14.27;13.77;;;37.60;30.60;;;;;;4876733;29;20456;-75
2022/08/14 13:30:04;;;;;;;15.37;14.87;;;37.10;30.20;;;;;;4876789;29;20520;-74
2022/08/14 13:32:32;;;;;;;14.67;14.07;;;36.90;30.70;;;;;;4876942;29;20879;-74
2022/08/14 13:35:00;;;;;;;14.53;14.03;;;37.30;30.00;;;;;;4876820;29;21021;-75
2022/08/14 13:37:30;;;;;;;14.17;13.67;;;37.70;29.90;;;;;;4876974;29;20906;-75
2022/08/14 13:39:57;;;;;;;14.50;14.00;;;37.70;29.50;;;;;;4877062;29;20464;-74
2022/08/14 13:42:26;;;;;;;13.60;13.10;;;37.10;29.30;;;;;;4876856;29;20456;-73
2022/08/14 13:44:55;;;;;;;14.40;13.90;;;36.00;30.20;;;;;;4876691;29;20831;-74
2022/08/14 13:47:23;;;;;;;14.00;13.50;;;36.50;29.80;;;;;;4876681;29;20456;-74
2022/08/14 13:49:52;;;;;;;12.87;12.47;;;37.00;29.20;;;;;;4876533;29;20464;-74
2022/08/14 13:52:21;;;;;;;14.30;13.80;;;37.60;29.00;;;;;;4876584;29;20464;-75
2022/08/14 13:54:53;;;;;;;14.50;14.00;;;38.40;28.40;;;;;;4876536;29;20551;-74
2022/08/14 13:57:20;;;;;;;14.47;13.90;;;39.20;27.70;;;;;;4876259;29;20947;-75
2022/08/14 13:59:49;;;;;;;15.63;14.80;;;38.40;27.90;;;;;;4876124;29;20484;-74
2022/08/14 14:02:18;;;;;;;15.20;14.60;;;37.90;28.30;;;;;;4876390;29;20483;-74
2022/08/14 14:04:46;;;;;;;15.53;14.83;;;38.10;28.30;;;;;;4876517;29;20507;-74
2022/08/14 14:07:15;;;;;;;14.73;14.23;;;38.30;27.40;;;;;;4876518;29;20456;-74
2022/08/14 14:09:46;;;;;;;15.70;14.90;;;38.60;27.30;;;;;;4876586;29;20493;-75
2022/08/14 14:12:14;;;;;;;14.23;13.67;;;37.80;28.10;;;;;;4876575;29;20460;-74
2022/08/14 14:14:42;;;;;;;15.10;14.60;;;37.10;28.40;;;;;;4876543;29;20460;-74
2022/08/14 14:17:12;;;;;;;14.30;13.80;;;36.20;29.30;;;;;;4876354;29;20903;-74
2022/08/14 14:19:42;;;;;;;14.10;13.70;;;35.60;29.60;;;;;;4876462;29;20459;-74
2022/08/14 14:22:08;;;;;;;13.90;13.40;;;35.30;29.40;;;;;;4876326;29;20456;-74
2022/08/14 14:24:35;;;;;;;14.60;13.83;;;35.30;29.70;;;;;;4876231;29;20460;-74
2022/08/14 14:27:04;;;;;;;14.13;13.70;;;35.10;29.60;;;;;;4876126;29;20452;-74
2022/08/14 14:29:32;;;;;;;14.00;13.50;;;35.20;29.40;;;;;;4876223;29;20512;-73
2022/08/14 14:32:00;;;;;;;14.47;13.87;;;35.80;29.00;;;;;;4877163;29;20570;-75
2022/08/14 14:34:29;;;;;;;13.93;13.43;;;36.20;29.00;;;;;;4880240;29;20492;-74
2022/08/14 14:37:03;;;;;;;15.00;14.40;;;36.50;29.00;;;;;;4880128;29;20519;-74
2022/08/14 14:39:32;;;;;;;14.33;13.63;;;36.40;29.00;;;;;;4879844;29;20977;-74
2022/08/14 14:42:00;;;;;;;14.47;13.97;;;36.30;29.60;;;;;;4879950;29;20488;-74
2022/08/14 14:44:33;;;;;;;14.80;14.30;;;36.10;29.60;;;;;;4879970;29;21001;-74
2022/08/14 14:47:01;;;;;;;15.50;14.90;;;36.30;29.50;;;;;;4879910;29;20551;-74
2022/08/14 14:49:29;;;;;;;14.93;14.40;;;34.80;30.50;;;;;;4880044;29;20499;-74
2022/08/14 14:51:56;;;;;;;13.33;12.83;;;34.00;31.50;;;;;;4879971;29;20495;-74
2022/08/14 14:54:23;;;;;;;13.93;13.43;;;33.60;32.20;;;;;;4879651;29;20459;-73
2022/08/14 14:56:51;;;;;;;14.23;13.40;;;33.30;32.50;;;;;;4879479;29;20506;-73
2022/08/14 14:59:18;;;;;;;13.00;12.60;;;33.00;32.90;;;;;;4879181;29;20863;-74
2022/08/14 15:01:49;;;;;;;13.90;13.40;;;32.80;32.80;;;;;;4885149;29;20464;-74
2022/08/14 15:04:16;;;;;;;13.53;12.93;;;32.60;32.00;;;;;;4886452;29;20455;-74
2022/08/14 15:06:43;;;;;;;14.43;13.93;;;32.60;32.60;;;;;;4888216;29;20519;-74
2022/08/14 15:09:10;;;;;;;14.10;13.60;;;32.50;32.80;;;;;;4888174;29;20455;-74
2022/08/14 15:11:37;;;;;;;14.60;14.00;;;32.60;32.80;;;;;;4886377;29;20452;-73
2022/08/14 15:14:03;;;;;;;14.70;14.10;;;32.80;33.00;;;;;;4887939;29;20509;-74
2022/08/14 15:16:30;;;;;;;14.57;14.07;;;32.90;33.00;;;;;;4887974;29;20452;-74
2022/08/14 15:18:58;;;;;;;14.90;14.27;;;33.00;33.50;;;;;;4886536;29;20453;-75
2022/08/14 15:21:25;;;;;;;14.23;13.63;;;33.10;33.80;;;;;;4887471;29;20864;-75
2022/08/14 15:23:51;;;;;;;15.33;14.80;;;33.00;33.40;;;;;;4887819;29;20456;-75
2022/08/14 15:26:20;;;;;;;15.63;15.00;;;33.00;34.10;;;;;;4886075;29;20863;-75
2022/08/14 15:28:47;;;;;;;14.40;13.90;;;33.00;33.60;;;;;;4887001;29;20463;-74
2022/08/14 15:31:14;;;;;;;15.77;15.17;;;32.90;33.40;;;;;;4887944;29;20460;-74
2022/08/14 15:36:27;;;;;;;14.70;14.10;;;33.20;33.40;;;;;;4885561;29;21213;-74
2022/08/14 15:38:54;;;;;;;14.90;14.40;;;33.10;33.00;;;;;;4888006;29;20486;-74
2022/08/14 15:41:21;;;;;;;15.10;14.40;;;33.00;33.20;;;;;;4889057;29;20490;-74
2022/08/14 15:43:49;;;;;;;14.63;14.13;;;32.90;32.70;;;;;;4896691;29;20993;-74
2022/08/14 15:46:17;;;;;;;14.40;13.90;;;33.00;32.40;;;;;;4897373;29;20465;-74
2022/08/14 15:48:44;;;;;;;13.77;13.13;;;32.90;31.30;;;;;;4897521;29;20881;-74
2022/08/14 15:51:11;;;;;;;13.80;13.30;;;32.80;30.90;;;;;;4888006;29;20549;-73
2022/08/14 15:53:39;;;;;;;14.63;14.13;;;32.70;31.20;;;;;;4886475;29;20954;-73
2022/08/14 15:56:06;;;;;;;13.47;12.97;;;32.90;31.30;;;;;;4897069;29;20463;-74
2022/08/14 15:58:33;;;;;;;14.40;13.80;;;32.80;30.80;;;;;;4886852;29;20752;-73
2022/08/14 16:03:44;;;;;;;13.70;13.20;;;32.50;30.90;;;;;;4885003;29;21240;-74
2022/08/14 16:06:13;;;;;;;14.87;13.73;;;32.30;31.10;;;;;;4887723;29;20462;-74
2022/08/14 16:08:41;;;;;;;14.23;13.73;;;32.40;31.10;;;;;;4886655;29;20504;-74
2022/08/14 16:11:09;;;;;;;13.80;13.30;;;32.30;31.50;;;;;;4885411;29;20444;-74
2022/08/14 16:13:42;;;;;;;13.40;12.90;;;32.40;31.70;;;;;;4886704;29;20447;-74
2022/08/14 16:16:10;;;;;;;13.30;12.80;;;32.50;32.00;;;;;;4887352;29;20452;-74
2022/08/14 16:18:39;;;;;;;13.97;13.43;;;32.60;31.60;;;;;;4885725;29;20484;-74
2022/08/14 16:21:08;;;;;;;14.57;13.97;;;32.60;31.90;;;;;;4885326;29;20455;-74
2022/08/14 16:23:39;;;;;;;14.57;13.97;;;32.40;31.90;;;;;;4885746;29;20875;-74
2022/08/14 16:26:08;;;;;;;14.33;13.77;;;32.40;32.90;;;;;;4885238;29;20460;-74
2022/08/14 16:28:35;;;;;;;13.83;13.33;;;32.40;31.70;;;;;;4885352;29;20453;-74
2022/08/14 16:31:01;;;;;;;13.27;12.77;;;32.30;32.10;;;;;;4885795;29;20542;-74
2022/08/14 16:33:28;;;;;;;13.70;13.10;;;32.20;31.40;;;;;;4887123;29;20499;-74
2022/08/14 16:35:56;;;;;;;13.90;13.40;;;32.10;31.30;;;;;;4885510;29;20460;-74
2022/08/14 16:38:26;;;;;;;14.30;13.80;;;32.10;31.20;;;;;;4885349;29;20505;-74
2022/08/14 16:41:15;;;;;;;13.70;13.20;;;32.00;31.50;;;;;;4886835;29;20448;-74
2022/08/14 16:43:44;;;;;;;13.77;13.27;;;32.10;31.70;;;;;;4886443;29;20445;-75
2022/08/14 16:46:13;;;;;;;14.40;13.90;;;32.00;31.50;;;;;;4884935;29;20448;-74
2022/08/14 16:48:40;;;;;;;13.60;13.10;;;32.10;32.60;;;;;;4886089;29;20494;-74
2022/08/14 16:51:08;;;;;;;14.57;13.97;;;32.10;32.10;;;;;;4886500;29;20456;-74
2022/08/14 16:53:36;;;;;;;14.77;14.17;;;32.10;32.60;;;;;;4885003;29;20992;-73
2022/08/14 16:56:17;;;;;;;13.47;12.80;;;32.10;31.90;;;;;;4884922;29;21009;-76
2022/08/14 16:58:48;;;;;;;14.13;13.63;;;32.10;32.00;;;;;;4885891;29;20487;-74
2022/08/14 17:01:19;;;;;;;13.27;12.83;;;32.00;31.10;;;;;;4883636;29;20455;-74
2022/08/14 17:03:58;;;;;;;13.27;12.77;;;32.00;31.10;;;;;;4883074;29;20579;-73
2022/08/14 17:06:44;;;;;;;13.83;13.03;;;31.90;32.30;;;;;;4885824;29;20459;-74
2022/08/14 17:09:25;;;;;;;12.80;12.30;;;31.90;32.00;;;;;;4884175;29;20451;-73
2022/08/14 17:11:55;;;;;;;12.97;12.47;;;31.70;32.20;;;;;;4885334;29;20519;-74